Map

Track Data

SID SEASON NUMBER BASIN SUBBASIN NAME ISO_TIME NATURE LAT LON WMO_WIND WMO_PRES WMO_AGENCY TRACK_TYPE DIST2LAND LANDFALL IFLAG USA_AGENCY USA_ATCF_ID USA_LAT USA_LON USA_RECORD USA_STATUS USA_WIND USA_PRES USA_SSHS USA_R34_NE USA_R34_SE USA_R34_SW USA_R34_NW USA_R50_NE USA_R50_SE USA_R50_SW USA_R50_NW USA_R64_NE USA_R64_SE USA_R64_SW USA_R64_NW USA_POCI USA_ROCI USA_RMW USA_EYE TOKYO_LAT TOKYO_LON TOKYO_GRADE TOKYO_WIND TOKYO_PRES TOKYO_R50_DIR TOKYO_R50_LONG TOKYO_R50_SHORT TOKYO_R30_DIR TOKYO_R30_LONG TOKYO_R30_SHORT TOKYO_LAND CMA_LAT CMA_LON CMA_CAT CMA_WIND CMA_PRES HKO_LAT HKO_LON HKO_CAT HKO_WIND HKO_PRES NEWDELHI_LAT NEWDELHI_LON NEWDELHI_GRADE NEWDELHI_WIND NEWDELHI_PRES NEWDELHI_CI NEWDELHI_DP NEWDELHI_POCI REUNION_LAT REUNION_LON REUNION_TYPE REUNION_WIND REUNION_PRES REUNION_TNUM REUNION_CI REUNION_RMW REUNION_R34_NE REUNION_R34_SE REUNION_R34_SW REUNION_R34_NW REUNION_R50_NE REUNION_R50_SE REUNION_R50_SW REUNION_R50_NW REUNION_R64_NE REUNION_R64_SE REUNION_R64_SW REUNION_R64_NW BOM_LAT BOM_LON BOM_TYPE BOM_WIND BOM_PRES BOM_TNUM BOM_CI BOM_RMW BOM_R34_NE BOM_R34_SE BOM_R34_SW BOM_R34_NW BOM_R50_NE BOM_R50_SE BOM_R50_SW BOM_R50_NW BOM_R64_NE BOM_R64_SE BOM_R64_SW BOM_R64_NW BOM_ROCI BOM_POCI BOM_EYE BOM_POS_METHOD BOM_PRES_METHOD NADI_LAT NADI_LON NADI_CAT NADI_WIND NADI_PRES WELLINGTON_LAT WELLINGTON_LON WELLINGTON_WIND WELLINGTON_PRES DS824_LAT DS824_LON DS824_STAGE DS824_WIND DS824_PRES TD9636_LAT TD9636_LON TD9636_STAGE TD9636_WIND TD9636_PRES TD9635_LAT TD9635_LON TD9635_WIND TD9635_PRES TD9635_ROCI NEUMANN_LAT NEUMANN_LON NEUMANN_CLASS NEUMANN_WIND NEUMANN_PRES MLC_LAT MLC_LON MLC_CLASS MLC_WIND MLC_PRES USA_GUST BOM_GUST BOM_GUST_PER REUNION_GUST REUNION_GUST_PER USA_SEAHGT USA_SEARAD_NE USA_SEARAD_SE USA_SEARAD_SW USA_SEARAD_NW STORM_SPEED STORM_DIR
1957192N07141 1957 37 WP MM WENDY 1957-07-10 18:00:00 TS 7.00000 141.000 1006 tokyo main 1012 1012 _OO___________ -1 7.00000 141.000 2 1006 0 0 0 7.00000 141.000 1 29 1006 14 315
1957192N07141 1957 37 WP MM WENDY 1957-07-10 21:00:00 TS 7.49140 140.499 main 1051 1051 _PP___________ -1 7.48017 140.493 2 1005 0 0 7.50263 140.505 1 29 1005 20 312
1957192N07141 1957 37 WP MM WENDY 1957-07-11 00:00:00 TS 8.32000 139.520 1004 tokyo main 1095 1095 OOO______OOO__ jtwc_wp WP061957 8.80000 138.800 35 0 8.00000 140.000 2 1004 0 0 0 8.00000 140.000 1 29 1005 8.80000 138.800 TC 35 8.80000 138.800 2 35 8.80000 138.800 35 1006 180 21 307
1957192N07141 1957 37 WP MM WENDY 1957-07-11 03:00:00 TS 8.73162 138.822 main 1111 1111 PPP______PPP__ WP061957 8.93781 138.128 35 0 8.55983 139.523 2 1004 0 0 8.47988 139.472 1 29 1004 8.93781 138.128 TC 35 8.96012 138.207 2 35 8.93781 138.128 35 1005 180 16 297
1957192N07141 1957 37 WP MM WENDY 1957-07-11 06:00:00 TS 9.04387 138.097 1004 tokyo main 1121 1121 OOO______OPO__ jtwc_wp WP061957 9.10000 137.500 35 0 9.00000 139.000 2 1004 0 0 0 8.90000 138.900 1 29 1004 9.10000 137.500 TC 35 9.12583 137.610 2 35 9.10000 137.500 35 1005 180 15 291
1957192N07141 1957 37 WP MM WENDY 1957-07-11 09:00:00 TS 9.25795 137.421 main 1138 1134 PPP______PPP__ WP061957 9.29981 136.942 35 0 9.11481 138.402 2 1004 0 0 9.22982 138.287 1 29 1004 9.29981 136.942 TC 35 9.30363 137.009 2 35 9.29981 136.942 35 1005 180 13 288
1957192N07141 1957 37 WP MM WENDY 1957-07-11 12:00:00 TS 9.45000 136.817 1004 tokyo main 1140 1077 OOO______OOO__ jtwc_wp WP061957 9.50000 136.400 35 0 9.20000 137.700 2 1004 0 0 0 9.50000 137.600 1 29 1004 9.50000 136.400 TC 35 9.50000 136.400 2 35 9.50000 136.400 35 1005 180 13 288
1957192N07141 1957 37 WP MM WENDY 1957-07-11 15:00:00 TS 9.65365 136.157 main 1079 1009 PPP______PPP__ WP061957 9.62735 135.822 35 0 9.57015 136.858 2 1003 0 0 9.74985 136.837 1 29 1003 9.62735 135.822 TC 35 9.71986 135.780 2 35 9.62735 135.822 35 1004 180 14 288
1957192N07141 1957 37 WP MM WENDY 1957-07-11 18:00:00 TS 9.89364 135.457 1002 tokyo main 1009 943 OOO______OPO__ jtwc_wp WP061957 9.80000 135.200 35 0 10.0000 136.000 2 1002 0 0 0 10.0000 136.000 1 29 1003 9.80000 135.200 TC 35 9.96182 135.144 2 36 9.80000 135.200 35 1004 180 15 291
1957192N07141 1957 37 WP MM WENDY 1957-07-11 21:00:00 TS 10.2020 134.737 main 933 865 PPP______PPP__ WP061957 10.1199 134.515 37 0 10.3297 135.277 2 1002 0 0 10.2999 135.115 1 29 1002 10.1199 134.515 TC 37 10.2229 134.486 2 37 10.1199 134.515 36 1004 180 16 294
1957192N07141 1957 37 WP MM WENDY 1957-07-12 00:00:00 TS 10.5333 134.000 1002 tokyo main 865 798 OOO______OOO__ jtwc_wp WP061957 10.5000 133.800 40 0 10.6000 134.600 2 1002 0 0 0 10.6000 134.200 1 29 1002 10.5000 133.800 TC 40 10.5000 133.800 2 38 10.5000 133.800 38 1004 180 16 294
1957192N07141 1957 37 WP MM WENDY 1957-07-12 03:00:00 TS 10.8499 133.258 main 798 732 PPP______PPP__ WP061957 10.8647 133.115 40 0 10.8223 133.900 2 1002 0 0 10.8725 133.270 1 29 1002 10.8647 133.115 TC 40 10.8104 133.035 2 38 10.8647 133.115 38 1003 210 16 292
1957192N07141 1957 37 WP MM WENDY 1957-07-12 06:00:00 TS 11.1385 132.508 1002 tokyo main 722 655 OOO______OPO__ jtwc_wp WP061957 11.2000 132.400 40 0 11.0000 133.200 2 1002 0 0 0 11.1000 132.400 1 29 1002 11.2000 132.400 TC 40 11.1307 132.248 2 39 11.2000 132.400 38 1003 240 16 290
1957192N07141 1957 37 WP MM WENDY 1957-07-12 09:00:00 TS 11.3843 131.720 main 645 571 PPP______PPP__ WP061957 11.4878 131.563 40 0 11.1423 132.507 2 1002 0 0 11.2648 131.640 1 33 1001 11.4878 131.563 TC 40 11.4356 131.488 2 39 11.4878 131.563 39 1001 240 15 287
1957192N07141 1957 37 WP MM WENDY 1957-07-12 12:00:00 TS 11.5833 131.000 1002 tokyo main 571 518 OOO______OOO__ jtwc_wp WP061957 11.7000 130.800 40 0 11.3000 131.800 2 1002 0 0 0 11.4000 131.000 2 38 1001 11.7000 130.800 TC 40 11.7000 130.800 2 40 11.7000 130.800 40 999 240 13 285
1957192N07141 1957 37 WP MM WENDY 1957-07-12 15:00:00 TS 11.7310 130.443 main 507 466 PPP______PPP__ WP061957 11.8071 130.305 50 0 11.5425 131.043 2 1001 0 0 11.5422 130.470 2 43 1000 11.8071 130.305 TC 50 11.8800 130.229 2 48 11.8071 130.305 49 996 270 11 286
1957192N07141 1957 37 WP MM WENDY 1957-07-12 18:00:00 TS 11.8702 129.956 1000 tokyo main 469 418 OOO______OPO__ jtwc_wp WP061957 11.9000 129.900 60 0 11.8000 130.300 9 1000 0 0 0 11.7000 130.000 3 48 1000 11.9000 129.900 TC 60 12.0214 129.737 2 57 11.9000 129.900 58 994 300 10 288
1957192N07141 1957 37 WP MM WENDY 1957-07-12 21:00:00 TS 12.0474 129.427 main 408 373 PPP______PPP__ WP061957 12.0925 129.393 67 1 11.9925 129.597 9 995 0 0 11.8625 129.485 3 58 995 12.0925 129.393 TC 67 12.1522 129.301 2 66 12.0925 129.393 66 991 330 11 291
1957192N07141 1957 37 WP MM WENDY 1957-07-13 00:00:00 TS 12.2500 128.933 990 tokyo main 367 326 OOO______OOO__ jtwc_wp WP061957 12.3000 128.900 75 1 12.2000 129.000 9 990 0 0 0 12.1000 129.000 4 68 990 12.3000 128.900 TC 75 12.3000 128.900 3 75 12.3000 128.900 75 988 360 10 295
1957192N07141 1957 37 WP MM WENDY 1957-07-13 03:00:00 TS 12.4541 128.517 main 327 296 PPP______PPP__ WP061957 12.4349 128.477 75 1 12.5072 128.562 9 990 0 0 12.4623 128.592 4 72 989 12.4349 128.477 TC 75 12.4501 128.516 3 75 12.4349 128.477 75 986 330 9 300
1957192N07141 1957 37 WP MM WENDY 1957-07-13 06:00:00 TS 12.6882 128.143 990 tokyo main 287 261 OOO______OPO__ jtwc_wp WP061957 12.6000 128.100 75 1 12.8000 128.200 9 990 0 0 0 12.9000 128.200 4 77 988 12.6000 128.100 TC 75 12.6292 128.156 3 76 12.6000 128.100 75 984 300 9 304
1957192N07141 1957 37 WP MM WENDY 1957-07-13 09:00:00 TS 12.9468 127.772 main 261 234 PPP______PPP__ WP061957 12.8474 127.750 77 1 12.9198 127.829 9 990 0 0 13.3500 127.757 4 82 987 12.8474 127.750 TC 77 12.8688 127.793 3 77 12.8474 127.750 76 984 300 10 309
1957192N07141 1957 37 WP MM WENDY 1957-07-13 12:00:00 TS 13.2833 127.383 990 tokyo main 240 225 OOO______OOO__ jtwc_wp WP061957 13.2000 127.400 80 1 13.1000 127.400 9 990 0 0 0 13.8000 127.300 5 87 986 13.2000 127.400 TC 80 13.2000 127.400 4 78 13.2000 127.400 78 984 300 11 315
1957192N07141 1957 37 WP MM WENDY 1957-07-13 15:00:00 TS 13.7302 126.955 main 233 229 PPP______PPP__ WP061957 13.6548 127.037 80 1 13.5328 126.800 9 990 0 0 14.2074 126.857 5 92 985 13.6548 127.037 TC 80 13.6766 126.961 4 80 13.6548 127.037 78 983 330 13 318
1957192N07141 1957 37 WP MM WENDY 1957-07-13 18:00:00 TS 14.2566 126.480 990 tokyo main 230 199 OOO______OPO__ jtwc_wp WP061957 14.2000 126.600 80 1 14.1000 126.200 9 990 0 0 0 14.6000 126.400 5 97 984 14.2000 126.600 TC 80 14.2395 126.483 4 83 14.2000 126.600 78 983 360 15 319
1957192N07141 1957 37 WP MM WENDY 1957-07-13 21:00:00 TS 14.8244 125.984 main 199 193 PPP______PPP__ WP061957 14.8074 126.045 85 2 14.7068 125.837 9 990 0 0 14.9844 125.967 5 97 983 14.8074 126.045 TC 85 14.8326 125.963 4 85 14.8074 126.045 83 982 360 15 317
1957192N07141 1957 37 WP MM WENDY 1957-07-14 00:00:00 TS 15.3833 125.400 990 tokyo main 196 190 OOO______OOO__ jtwc_wp WP061957 15.4000 125.400 90 2 15.3000 125.400 9 990 0 0 0 15.4000 125.400 5 97 983 15.4000 125.400 TC 90 15.4000 125.400 4 88 15.4000 125.400 88 982 360 16 310
1957192N07141 1957 37 WP MM WENDY 1957-07-14 03:00:00 TS 15.8671 124.675 main 216 163 PPP______PPP__ WP061957 15.8800 124.700 90 2 15.7728 124.617 9 987 0 0 15.9004 124.553 5 97 983 15.8800 124.700 TC 90 15.8895 124.781 4 88 15.8800 124.700 89 981 360 17 303
1957192N07141 1957 37 WP MM WENDY 1957-07-14 06:00:00 TS 16.3067 123.904 985 tokyo main 163 77 OOO______OPO__ jtwc_wp WP061957 16.3000 124.000 90 2 16.2000 123.700 9 985 0 0 0 16.4000 123.600 5 97 983 16.3000 124.000 TC 90 16.3403 124.123 4 89 16.3000 124.000 90 981 360 17 301
1957192N07141 1957 37 WP MM WENDY 1957-07-14 09:00:00 TS 16.7446 123.183 main 77 15 PPP______PPP__ WP061957 16.7372 123.385 90 2 16.6802 122.798 9 985 0 0 16.8301 122.690 5 87 984 16.7372 123.385 TC 90 16.7458 123.453 4 89 16.7372 123.385 90 982 330 16 301
1957192N07141 1957 37 WP MM WENDY 1957-07-14 12:00:00 TS 17.1167 122.517 985 tokyo main 10 0 OOO______OOO__ jtwc_wp WP061957 17.1000 122.800 90 2 17.1000 122.000 9 985 0 0 0 17.2000 121.900 4 77 986 17.1000 122.800 TC 90 17.1000 122.800 4 90 17.1000 122.800 90 984 300 14 298
1957192N07141 1957 37 WP MM WENDY 1957-07-14 15:00:00 TS 17.3775 121.928 main 0 0 PPP______PPP__ WP061957 17.3149 122.192 90 2 17.3794 121.447 9 985 0 0 17.5294 121.340 4 77 986 17.3149 122.192 TC 90 17.4116 122.206 4 88 17.3149 122.192 90 985 300 12 294
1957192N07141 1957 37 WP MM WENDY 1957-07-14 18:00:00 TS 17.5956 121.389 985 tokyo main 0 0 OOO______OPO__ jtwc_wp WP061957 17.5000 121.600 90 2 17.6000 121.000 9 985 0 0 0 17.8000 120.900 4 77 986 17.5000 121.600 TC 90 17.6737 121.634 4 86 17.5000 121.600 90 986 300 11 295
1957192N07141 1957 37 WP MM WENDY 1957-07-14 21:00:00 TS 17.8643 120.853 main 0 0 PPP______PPP__ WP061957 17.7998 121.043 85 2 17.8650 120.485 9 985 0 0 18.0224 120.435 4 72 987 17.7998 121.043 TC 85 17.8991 121.069 4 84 17.7998 121.043 86 987 300 11 297
1957192N07141 1957 37 WP MM WENDY 1957-07-15 00:00:00 TS 18.1167 120.333 985 tokyo main 21 21 OOO______OOO__ jtwc_wp WP061957 18.1000 120.500 80 1 18.1000 120.000 9 985 0 0 0 18.2000 120.000 4 68 988 18.1000 120.500 TC 80 18.1000 120.500 4 82 18.1000 120.500 82 989 300 11 295
1957192N07141 1957 37 WP MM WENDY 1957-07-15 03:00:00 TS 18.3082 119.829 main 77 77 PPP______PPP__ WP061957 18.3222 119.965 77 1 18.2572 119.607 9 985 0 0 18.3573 119.607 4 68 988 18.3222 119.965 TC 77 18.2684 119.866 4 80 18.3222 119.965 78 989 270 10 290
1957192N07141 1957 37 WP MM WENDY 1957-07-15 06:00:00 TS 18.4701 119.305 985 tokyo main 134 134 OOO______OPO__ jtwc_wp WP061957 18.5000 119.400 75 1 18.4000 119.200 9 985 0 0 0 18.5000 119.200 4 68 988 18.5000 119.400 TC 75 18.4206 119.231 4 78 18.5000 119.400 75 989 240 11 286
1957192N07141 1957 37 WP MM WENDY 1957-07-15 09:00:00 TS 18.6138 118.701 main 198 198 PPP______PPP__ WP061957 18.6277 118.735 75 1 18.5851 118.657 9 985 0 0 18.6275 118.715 4 68 987 18.6277 118.735 TC 75 18.5873 118.631 4 76 18.6277 118.735 75 988 210 12 286
1957192N07141 1957 37 WP MM WENDY 1957-07-15 12:00:00 TS 18.8000 118.117 985 tokyo main 265 265 OOO______OOO__ jtwc_wp WP061957 18.8000 118.100 75 1 18.8000 118.100 9 985 0 0 0 18.8000 118.200 4 68 987 18.8000 118.100 TC 75 18.8000 118.100 4 75 18.8000 118.100 75 988 180 11 295
1957192N07141 1957 37 WP MM WENDY 1957-07-15 15:00:00 TS 19.0839 117.622 main 325 325 PPP______PPP__ WP061957 19.1198 117.590 75 1 19.0200 117.605 9 986 0 0 19.0701 117.663 4 68 985 19.1198 117.590 TC 75 19.0538 117.693 4 76 19.1198 117.590 75 986 180 11 307
1957192N07141 1957 37 WP MM WENDY 1957-07-15 18:00:00 TS 19.4272 117.225 988 tokyo main 374 357 OOO______OPO__ jtwc_wp WP061957 19.5000 117.200 75 1 19.3000 117.200 9 988 0 0 0 19.4000 117.200 4 68 983 19.5000 117.200 TC 75 19.3634 117.353 4 77 19.5000 117.200 75 984 180 9 316
1957192N07141 1957 37 WP MM WENDY 1957-07-15 21:00:00 TS 19.7475 116.954 main 357 305 PPP______PPP__ WP061957 19.8047 116.934 77 1 19.6322 116.949 9 988 0 0 19.6972 116.934 4 68 983 19.8047 116.934 TC 77 19.7414 117.036 4 78 19.8047 116.934 77 982 180 9 326
1957192N07141 1957 37 WP MM WENDY 1957-07-16 00:00:00 TS 20.1667 116.700 988 tokyo main 294 232 OOO______OOO__ jtwc_wp WP061957 20.2000 116.700 80 1 20.1000 116.700 9 988 0 0 0 20.1000 116.700 4 68 983 20.2000 116.700 TC 80 20.2000 116.700 4 80 20.2000 116.700 80 980 180 12 331
1957192N07141 1957 37 WP MM WENDY 1957-07-16 03:00:00 TS 20.7787 116.353 main 221 146 PPP______PPP__ WP061957 20.8123 116.395 75 1 20.7625 116.288 9 989 0 0 20.7274 116.338 4 68 984 20.8123 116.395 TC 75 20.7452 116.310 4 75 20.8123 116.395 76 984 180 15 331
1957192N07141 1957 37 WP MM WENDY 1957-07-16 06:00:00 TS 21.4627 115.928 990 tokyo main 134 78 OOO______OPO__ jtwc_wp WP061957 21.5000 116.000 70 1 21.5000 115.800 9 990 0 0 0 21.4000 115.900 4 68 985 21.5000 116.000 TC 70 21.3594 115.870 4 70 21.5000 116.000 72 989 180 15 327
1957192N07141 1957 37 WP MM WENDY 1957-07-16 09:00:00 TS 22.0744 115.466 main 67 0 PPP______PPP__ WP061957 22.0612 115.575 65 1 22.2247 115.330 9 992 0 0 21.9525 115.408 4 63 985 22.0612 115.575 TC 65 22.0189 115.395 4 65 22.1255 115.486 66 991 150 15 321
1957192N07141 1957 37 WP MM WENDY 1957-07-16 12:00:00 TS 22.6556 114.878 994 tokyo main 0 0 OOO______OOO__ jtwc_wp WP061957 22.7000 114.900 60 0 22.8000 114.800 9 994 0 0 0 22.4000 114.900 3 58 985 22.7000 114.900 TC 60 22.7000 114.900 2 60 22.7000 114.900 60 993 120 17 312
1957192N07141 1957 37 WP MM WENDY 1957-07-16 15:00:00 TS 23.2310 114.060 main 0 0 PPP______P____ WP061957 23.5938 113.785 55 0 23.0373 114.186 9 994 0 0 22.6993 114.486 3 53 986 23.5938 113.785 TC 55 2 20 305
1957192N07141 1957 37 WP MM WENDY 1957-07-16 18:00:00 TS 23.8000 113.125 994 tokyo main 0 0 OOO______O____ jtwc_wp WP061957 24.5000 112.500 50 0 23.2000 113.500 9 994 0 0 0 23.0000 114.000 3 48 988 24.5000 112.500 TC 50 2 20 305
1957192N07141 1957 37 WP MM WENDY 1957-07-16 21:00:00 TS 24.3885 112.222 main 0 0 PPP______P____ WP061957 25.2544 111.355 45 0 23.5393 112.802 9 994 0 0 23.5062 113.378 3 33 990 25.2544 111.355 TC 45 2 21 303
1957192N07141 1957 37 WP MM WENDY 1957-07-17 00:00:00 TS 24.9600 111.193 994 tokyo main 0 0 OOO______O____ jtwc_wp WP061957 25.8000 110.300 40 0 24.0000 112.000 9 994 0 0 0 24.0000 112.500 0 19 992 25.8000 110.300 TC 40 21 298
1957192N07141 1957 37 WP MM WENDY 1957-07-17 03:00:00 TS 25.3749 110.150 main 0 0 PPP______P____ WP061957 26.0352 109.419 35 0 24.5850 111.038 9 994 0 0 24.3134 111.295 0 18 993 26.0352 109.419 TC 35 20 292
1957192N07141 1957 37 WP MM WENDY 1957-07-17 06:00:00 TS 25.6818 109.173 994 tokyo main 0 0 OOO______O____ jtwc_wp WP061957 26.2000 108.500 30 -1 25.2000 110.000 2 994 0 0 0 24.5000 109.900 0 17 995 26.2000 108.500 TC 30 19 292
1957192N07141 1957 37 WP MM WENDY 1957-07-17 09:00:00 TS 26.0971 108.195 main 0 0 PP_______P____ WP061957 26.5412 107.334 27 -1 25.6530 109.056 2 994 0 0 0 26.5412 107.334 TC 27 18 295
1957192N07141 1957 37 WP MM WENDY 1957-07-17 12:00:00 TS 26.4667 107.333 994 tokyo main 0 0 OO_______O____ jtwc_wp WP061957 27.0000 106.000 25 -1 26.2000 108.000 2 994 0 0 0 27.0000 106.000 TC 25 19 303
1957192N07141 1957 37 WP MM WENDY 1957-07-17 15:00:00 TS 27.1421 106.398 main 0 0 _P____________ WP061957 -1 27.1421 106.398 2 995 0 0 TC 24 309
1957192N07141 1957 37 WP MM WENDY 1957-07-17 18:00:00 TS 28.0000 105.200 996 tokyo main 0 0 _O____________ -1 28.0000 105.200 2 996 0 0 0 16 320
1957192N07141 1957 37 WP MM WENDY 1957-07-17 21:00:00 TS 28.3987 105.215 main 0 0 _P____________ -1 28.3987 105.215 2 996 0 0 9 55
1957192N07141 1957 37 WP MM WENDY 1957-07-18 00:00:00 TS 28.5000 106.000 996 tokyo main 0 _O____________ -1 28.5000 106.000 2 996 0 0 0 14 82

Digital Typhoon Data and Search

About IBTrACS Database

This database is a web-friendly format of International Best Track Archive for Climate Stewardship (IBTrACS), a global best track data archive curated by NOAA dating back to 1842.

Updated: 2021-10-08